createdAt,value
2018-07-12T00:02:15.031Z,98183.83
2018-07-12T00:04:42.995Z,98180.68
2018-07-12T00:07:10.652Z,98184.45
2018-07-12T00:09:38.279Z,98183.05
2018-07-12T00:12:06.490Z,98174.27
2018-07-12T00:14:35.010Z,98174.20
2018-07-12T00:17:02.658Z,98173.34
2018-07-12T00:19:30.676Z,98169.69
2018-07-12T00:21:58.303Z,98171.23
2018-07-12T00:24:25.927Z,98167.64
2018-07-12T00:26:53.571Z,98168.42
2018-07-12T00:29:21.278Z,98173.19
2018-07-12T00:31:48.913Z,98173.78
2018-07-12T00:34:17.015Z,98172.71
2018-07-12T00:36:44.675Z,98172.56
2018-07-12T00:39:12.299Z,98170.14
2018-07-12T00:41:39.945Z,98172.20
2018-07-12T00:44:07.568Z,98167.41
2018-07-12T00:46:35.208Z,98168.69
2018-07-12T00:49:03.178Z,98177.23
2018-07-12T00:51:30.874Z,98175.38
2018-07-12T00:53:58.518Z,98172.67
2018-07-12T00:56:26.638Z,98166.18
2018-07-12T00:58:54.318Z,98172.41
2018-07-12T01:01:21.945Z,98168.42
2018-07-12T01:03:49.579Z,98174.27
2018-07-12T01:06:17.270Z,98166.36
2018-07-12T01:08:44.944Z,98167.56
2018-07-12T01:11:12.658Z,98169.00
2018-07-12T01:13:40.314Z,98164.92
2018-07-12T01:16:07.932Z,98163.50
2018-07-12T01:18:35.671Z,98164.12
2018-07-12T01:21:03.340Z,98162.84
2018-07-12T01:23:31.094Z,98169.42
2018-07-12T01:25:58.719Z,98169.69
2018-07-12T01:28:26.374Z,98166.13
2018-07-12T01:30:53.991Z,98169.70
2018-07-12T01:33:21.622Z,98167.42
2018-07-12T01:35:49.363Z,98162.44
2018-07-12T01:38:17.052Z,98160.58
2018-07-12T01:40:44.739Z,98154.02
2018-07-12T01:43:12.426Z,98156.44
2018-07-12T01:45:40.083Z,98154.16
2018-07-12T01:48:08.208Z,98155.45
2018-07-12T01:50:35.919Z,98146.90
2018-07-12T01:53:03.897Z,98152.97
2018-07-12T01:55:32.164Z,98151.86
2018-07-12T01:58:00.314Z,98155.75
2018-07-12T02:00:27.953Z,98156.87
2018-07-12T02:02:55.933Z,98153.79
2018-07-12T02:05:23.597Z,98155.68
2018-07-12T02:07:51.330Z,98151.72
2018-07-12T02:10:19.343Z,98155.17
2018-07-12T02:12:46.977Z,98155.81
2018-07-12T02:15:14.627Z,98149.91
2018-07-12T02:17:42.253Z,98148.19
2018-07-12T02:20:10.204Z,98147.89
2018-07-12T02:22:37.858Z,98150.03
2018-07-12T02:25:05.577Z,98145.26
2018-07-12T02:27:33.238Z,98143.50
2018-07-12T02:30:00.852Z,98140.83
2018-07-12T02:32:29.461Z,98141.47
2018-07-12T02:34:57.272Z,98149.34
2018-07-12T02:37:24.954Z,98146.12
2018-07-12T02:39:52.591Z,98147.33
2018-07-12T02:42:20.531Z,98145.20
2018-07-12T02:44:48.180Z,98142.41
2018-07-12T02:47:16.079Z,98146.84
2018-07-12T02:49:43.984Z,98143.42
2018-07-12T02:52:12.658Z,98143.90
2018-07-12T02:54:40.469Z,98147.72
2018-07-12T02:57:08.170Z,98149.77
2018-07-12T02:59:36.103Z,98141.69
2018-07-12T03:02:03.929Z,98143.87
2018-07-12T03:04:32.681Z,98138.19
2018-07-12T03:07:00.307Z,98138.19
2018-07-12T03:09:27.931Z,98127.83
2018-07-12T03:11:55.879Z,98127.09
2018-07-12T03:14:24.135Z,98130.15
2018-07-12T03:16:51.760Z,98133.66
2018-07-12T03:19:19.394Z,98136.80
2018-07-12T03:21:47.035Z,98134.80
2018-07-12T03:24:14.670Z,98142.28
2018-07-12T03:26:42.302Z,98137.28
2018-07-12T03:29:09.975Z,98142.92
2018-07-12T03:31:37.968Z,98140.41
2018-07-12T03:34:06.059Z,98148.33
2018-07-12T03:36:33.727Z,98149.68
2018-07-12T03:39:01.363Z,98147.34
2018-07-12T03:41:28.992Z,98153.07
2018-07-12T03:43:56.706Z,98152.17
2018-07-12T03:46:24.343Z,98154.46
2018-07-12T03:48:51.982Z,98156.27
2018-07-12T03:51:19.895Z,98157.25
2018-07-12T03:53:47.611Z,98163.72
2018-07-12T03:56:15.238Z,98169.92
2018-07-12T03:58:43.439Z,98168.57
2018-07-12T04:01:11.219Z,98170.70
2018-07-12T04:03:39.716Z,98163.00
2018-07-12T04:06:08.271Z,98166.48
2018-07-12T04:08:35.943Z,98161.55
2018-07-12T04:11:03.604Z,98162.03
2018-07-12T04:13:31.243Z,98166.83
2018-07-12T04:15:58.874Z,98162.61
2018-07-12T04:18:26.766Z,98159.94
2018-07-12T04:20:54.731Z,98165.69
2018-07-12T04:23:22.363Z,98163.35
2018-07-12T04:25:49.997Z,98165.45
2018-07-12T04:28:17.814Z,98165.23
2018-07-12T04:30:45.676Z,98164.93
2018-07-12T04:33:13.995Z,98165.25
2018-07-12T04:35:41.935Z,98164.22
2018-07-12T04:38:09.570Z,98164.87
2018-07-12T04:40:37.570Z,98152.89
2018-07-12T04:43:05.266Z,98152.23
2018-07-12T04:45:32.923Z,98156.60
2018-07-12T04:48:00.634Z,98161.49
2018-07-12T04:50:28.522Z,98158.58
2018-07-12T04:52:56.544Z,98162.10
2018-07-12T04:55:24.786Z,98161.44
2018-07-12T04:57:52.448Z,98169.15
2018-07-12T05:00:20.590Z,98170.06
2018-07-12T05:02:48.659Z,98168.42
2018-07-12T05:05:16.277Z,98169.34
2018-07-12T05:07:44.583Z,98170.35
2018-07-12T05:10:12.695Z,98166.92
2018-07-12T05:12:42.215Z,98165.20
2018-07-12T05:15:10.175Z,98162.69
2018-07-12T05:17:37.792Z,98169.08
2018-07-12T05:20:05.454Z,98164.33
2018-07-12T05:22:33.374Z,98171.95
2018-07-12T05:25:01.015Z,98172.83
2018-07-12T05:27:28.721Z,98170.39
2018-07-12T05:29:56.633Z,98167.16
2018-07-12T05:32:24.995Z,98166.56
2018-07-12T05:34:52.705Z,98173.88
2018-07-12T05:37:22.439Z,98180.14
2018-07-12T05:39:52.435Z,98178.84
2018-07-12T05:42:22.318Z,98181.63
2018-07-12T05:44:52.191Z,98176.75
2018-07-12T05:47:21.564Z,98169.33
2018-07-12T05:49:50.931Z,98170.48
2018-07-12T05:52:20.793Z,98175.66
2018-07-12T05:54:50.035Z,98182.38
2018-07-12T05:57:19.336Z,98186.10
2018-07-12T05:59:49.011Z,98190.88
2018-07-12T06:02:21.546Z,98188.06
2018-07-12T06:04:51.637Z,98181.78
2018-07-12T06:07:26.242Z,98193.31
2018-07-12T06:09:56.195Z,98194.75
2018-07-12T06:12:26.626Z,98201.02
2018-07-12T06:14:55.903Z,98206.30
2018-07-12T06:17:25.238Z,98215.92
2018-07-12T06:19:55.091Z,98214.88
2018-07-12T06:22:24.691Z,98209.41
2018-07-12T06:24:54.262Z,98208.61
2018-07-12T06:27:23.609Z,98206.55
2018-07-12T06:29:53.422Z,98214.23
2018-07-12T06:32:22.906Z,98218.41
2018-07-12T06:34:52.039Z,98222.56
2018-07-12T06:37:21.144Z,98227.91
2018-07-12T06:39:50.243Z,98222.67
2018-07-12T06:42:19.386Z,98227.28
2018-07-12T06:44:48.903Z,98232.20
2018-07-12T06:47:18.446Z,98232.20
2018-07-12T06:49:47.346Z,98232.36
2018-07-12T06:52:16.948Z,98229.91
2018-07-12T06:54:46.143Z,98241.19
2018-07-12T06:57:16.773Z,98240.80
2018-07-12T06:59:45.866Z,98240.77
2018-07-12T07:02:14.981Z,98238.69
2018-07-12T07:04:44.133Z,98234.67
2018-07-12T07:07:13.781Z,98237.05
2018-07-12T07:09:42.922Z,98246.23
2018-07-12T07:12:12.011Z,98249.16
2018-07-12T07:14:41.145Z,98249.04
2018-07-12T07:17:10.369Z,98253.48
2018-07-12T07:19:39.674Z,98248.02
2018-07-12T07:22:08.952Z,98249.00
2018-07-12T07:24:38.498Z,98249.15
2018-07-12T07:27:07.594Z,98257.30
2018-07-12T07:29:36.746Z,98255.70
2018-07-12T07:32:05.876Z,98263.20
2018-07-12T07:34:35.015Z,98263.14
2018-07-12T07:37:04.162Z,98276.00
2018-07-12T07:39:33.254Z,98274.12
2018-07-12T07:42:02.436Z,98271.00
2018-07-12T07:44:32.346Z,98271.84
2018-07-12T07:47:01.774Z,98280.22
2018-07-12T07:49:31.138Z,98284.00
2018-07-12T07:52:00.418Z,98287.52
2018-07-12T07:54:29.703Z,98288.10
2018-07-12T07:56:58.913Z,98292.53
2018-07-12T07:59:28.310Z,98288.13
2018-07-12T08:01:57.662Z,98289.59
2018-07-12T08:04:27.959Z,98296.13
2018-07-12T08:06:57.270Z,98295.56
2018-07-12T08:09:26.541Z,98289.25
2018-07-12T08:11:55.779Z,98290.54
2018-07-12T08:14:25.091Z,98291.00
2018-07-12T08:16:53.851Z,98291.91
2018-07-12T08:19:22.986Z,98294.20
2018-07-12T08:22:03.350Z,98298.66
2018-07-12T08:24:32.483Z,98308.23
2018-07-12T08:27:01.620Z,98294.95
2018-07-12T08:29:31.085Z,98300.90
2018-07-12T08:32:01.166Z,98306.58
2018-07-12T08:34:30.339Z,98302.98
2018-07-12T08:36:59.538Z,98303.17
2018-07-12T08:39:28.590Z,98301.41
2018-07-12T08:41:57.758Z,98296.70
2018-07-12T08:44:26.872Z,98301.63
2018-07-12T08:46:55.959Z,98295.53
2018-07-12T08:49:25.902Z,98303.41
2018-07-12T08:51:55.026Z,98299.23
2018-07-12T08:54:24.145Z,98298.53
2018-07-12T08:56:53.341Z,98292.31
2018-07-12T08:59:22.483Z,98295.20
2018-07-12T09:01:51.597Z,98290.98
2018-07-12T09:04:21.395Z,98293.04
2018-07-12T09:06:51.323Z,98290.62
2018-07-12T09:09:20.562Z,98294.08
2018-07-12T09:11:49.820Z,98285.55
2018-07-12T09:14:19.438Z,98287.84
2018-07-12T09:16:49.215Z,98284.89
2018-07-12T09:19:19.283Z,98285.86
2018-07-12T09:21:49.224Z,98287.95
2018-07-12T09:24:19.131Z,98291.77
2018-07-12T09:26:48.999Z,98286.42
2018-07-12T09:29:18.399Z,98288.97
2018-07-12T09:31:47.998Z,98284.33
2018-07-12T09:34:18.078Z,98280.23
2018-07-12T09:36:47.875Z,98284.11
2018-07-12T09:39:17.810Z,98288.69
2018-07-12T09:41:47.135Z,98293.08
2018-07-12T09:44:16.622Z,98287.92
2018-07-12T09:46:45.898Z,98294.85
2018-07-12T09:49:15.346Z,98292.75
2018-07-12T09:51:44.311Z,98292.16
2018-07-12T09:54:13.411Z,98287.80
2018-07-12T09:56:59.366Z,98293.55
2018-07-12T09:59:28.799Z,98294.06
2018-07-12T10:02:02.838Z,98288.78
2018-07-12T10:04:32.458Z,98289.61
2018-07-12T10:07:07.567Z,98279.98
2018-07-12T10:09:41.877Z,98276.38
2018-07-12T10:12:16.299Z,98283.77
2018-07-12T10:14:51.594Z,98285.33
2018-07-12T10:17:25.888Z,98285.11
2018-07-12T10:19:55.029Z,98283.95
2018-07-12T10:22:24.748Z,98280.97
2018-07-12T10:24:53.890Z,98272.15
2018-07-12T10:27:23.151Z,98267.45
2018-07-12T10:29:52.890Z,98262.97
2018-07-12T10:32:22.106Z,98259.80
2018-07-12T10:34:51.508Z,98261.22
2018-07-12T10:37:21.019Z,98260.98
2018-07-12T10:39:50.947Z,98258.09
2018-07-12T10:42:20.450Z,98253.98
2018-07-12T10:44:50.402Z,98253.84
2018-07-12T10:47:19.699Z,98258.00
2018-07-12T10:49:49.068Z,98252.19
2018-07-12T10:52:18.346Z,98246.53
2018-07-12T10:54:48.018Z,98243.13
2018-07-12T10:57:17.139Z,98260.02
2018-07-12T10:59:46.246Z,98248.49
2018-07-12T11:02:15.383Z,98246.98
2018-07-12T11:04:46.398Z,98244.95
2018-07-12T11:07:15.647Z,98251.38
2018-07-12T11:09:44.955Z,98246.42
2018-07-12T11:12:14.430Z,98248.55
2018-07-12T11:14:43.666Z,98250.81
2018-07-12T11:17:12.755Z,98246.92
2018-07-12T11:19:41.882Z,98252.56
2018-07-12T11:22:10.964Z,98248.13
2018-07-12T11:24:41.067Z,98249.16
2018-07-12T11:27:10.195Z,98254.83
2018-07-12T11:29:54.974Z,98253.58
2018-07-12T11:32:24.100Z,98251.00
2018-07-12T11:34:53.283Z,98253.97
2018-07-12T11:37:25.978Z,98251.20
2018-07-12T11:39:55.143Z,98255.96
2018-07-12T11:42:24.018Z,98254.03
2018-07-12T11:44:53.135Z,98254.43
2018-07-12T11:47:22.312Z,98245.75
2018-07-12T11:49:51.397Z,98249.86
2018-07-12T11:52:20.515Z,98244.12
2018-07-12T11:54:49.617Z,98247.05
2018-07-12T11:57:18.728Z,98239.70
2018-07-12T11:59:47.847Z,98239.48
2018-07-12T12:02:16.926Z,98242.19
2018-07-12T12:04:46.014Z,98239.93
2018-07-12T12:07:15.127Z,98234.50
2018-07-12T12:09:45.051Z,98241.39
2018-07-12T12:12:14.240Z,98241.20
2018-07-12T12:14:43.450Z,98238.01
2018-07-12T12:17:12.776Z,98238.36
2018-07-12T12:19:42.190Z,98238.54
2018-07-12T12:22:12.486Z,98240.83
2018-07-12T12:24:42.170Z,98246.28
2018-07-12T12:27:11.863Z,98237.95
2018-07-12T12:29:41.090Z,98241.81
2018-07-12T12:32:10.874Z,98236.16
2018-07-12T12:34:39.787Z,98240.73
2018-07-12T12:37:09.123Z,98241.61
2018-07-12T12:39:38.258Z,98237.52
2018-07-12T12:42:07.350Z,98240.17
2018-07-12T12:44:37.263Z,98234.68
2018-07-12T12:47:07.278Z,98241.42
2018-07-12T12:49:36.643Z,98237.20
2018-07-12T12:52:05.990Z,98240.14
2018-07-12T12:54:35.275Z,98235.91
2018-07-12T12:57:05.468Z,98233.18
2018-07-12T12:59:35.243Z,98238.80
2018-07-12T13:02:05.108Z,98246.73
2018-07-12T13:04:34.429Z,98237.85
2018-07-12T13:07:04.347Z,98232.55
2018-07-12T13:09:33.571Z,98233.19
2018-07-12T13:12:03.460Z,98236.59
2018-07-12T13:14:33.246Z,98236.02
2018-07-12T13:17:02.583Z,98236.20
2018-07-12T13:19:32.236Z,98241.63
2018-07-12T13:22:02.615Z,98237.41
2018-07-12T13:24:31.867Z,98231.34
2018-07-12T13:27:01.077Z,98234.33
2018-07-12T13:29:30.274Z,98235.55
2018-07-12T13:32:00.192Z,98237.98
2018-07-12T13:34:30.083Z,98231.86
2018-07-12T13:37:00.506Z,98227.88
2018-07-12T13:39:29.634Z,98231.16
2018-07-12T13:41:58.915Z,98228.73
2018-07-12T13:44:28.070Z,98230.62
2018-07-12T13:46:57.165Z,98231.97
2018-07-12T13:49:26.258Z,98225.81
2018-07-12T13:51:55.379Z,98219.75
2018-07-12T13:54:24.487Z,98221.95
2018-07-12T13:56:53.768Z,98220.72
2018-07-12T13:59:22.909Z,98224.55
2018-07-12T14:01:52.071Z,98223.19
2018-07-12T14:04:21.183Z,98228.08
2018-07-12T14:06:50.382Z,98209.23
2018-07-12T14:09:19.529Z,98212.73
2018-07-12T14:11:48.673Z,98208.73
2018-07-12T14:14:18.184Z,98212.77
2018-07-12T14:16:48.139Z,98220.72
2018-07-12T14:19:18.062Z,98215.70
2018-07-12T14:21:48.019Z,98216.95
2018-07-12T14:24:17.999Z,98216.03
2018-07-12T14:26:47.351Z,98215.77
2018-07-12T14:29:16.998Z,98218.84
2018-07-12T14:31:46.909Z,98219.72
2018-07-12T14:34:16.785Z,98213.25
2018-07-12T14:36:46.010Z,98204.44
2018-07-12T14:39:15.230Z,98205.32
2018-07-12T14:41:44.578Z,98204.16
2018-07-12T14:44:14.036Z,98202.32
2018-07-12T14:46:43.827Z,98201.05
2018-07-12T14:49:13.803Z,98199.69
2018-07-12T14:51:43.816Z,98203.09
2018-07-12T14:54:13.658Z,98200.05
2018-07-12T14:56:43.623Z,98192.36
2018-07-12T14:59:13.395Z,98184.30
2018-07-12T15:01:42.486Z,98183.94
2018-07-12T15:04:11.803Z,98185.83
2018-07-12T15:06:40.974Z,98189.97
2018-07-12T15:09:10.634Z,98192.26
2018-07-12T15:11:39.574Z,98185.41
2018-07-12T15:14:08.986Z,98186.16
2018-07-12T15:16:38.135Z,98188.84
2018-07-12T15:19:07.258Z,98185.78
2018-07-12T15:21:36.739Z,98188.64
2018-07-12T15:24:06.535Z,98189.33
2018-07-12T15:26:35.986Z,98183.39
2018-07-12T15:29:05.419Z,98190.02
2018-07-12T15:31:35.077Z,98182.75
2018-07-12T15:34:04.934Z,98184.94
2018-07-12T15:36:34.250Z,98179.72
2018-07-12T15:39:06.319Z,98181.64
2018-07-12T15:41:35.414Z,98179.63
2018-07-12T15:44:04.546Z,98182.94
2018-07-12T15:46:33.943Z,98175.70
2018-07-12T15:49:03.426Z,98181.02
2018-07-12T15:51:37.820Z,98174.91
2018-07-12T15:54:06.906Z,98180.40
2018-07-12T15:56:36.033Z,98179.53
2018-07-12T15:59:05.202Z,98182.52
2018-07-12T16:01:34.335Z,98186.13
2018-07-12T16:04:03.454Z,98182.60
2018-07-12T16:06:32.947Z,98179.86
2018-07-12T16:09:02.506Z,98186.34
2018-07-12T16:11:31.795Z,98183.95
2018-07-12T16:14:00.922Z,98187.17
2018-07-12T16:16:30.000Z,98186.77
2018-07-12T16:19:00.035Z,98185.48
2018-07-12T16:21:29.151Z,98185.34
2018-07-12T16:23:58.243Z,98185.79
2018-07-12T16:26:27.367Z,98187.28
2018-07-12T16:28:56.463Z,98183.62
2018-07-12T16:31:26.323Z,98185.91
2018-07-12T16:33:55.433Z,98182.70
2018-07-12T16:36:24.522Z,98179.92
2018-07-12T16:38:54.650Z,98180.02
2018-07-12T16:41:24.074Z,98182.11
2018-07-12T16:43:53.484Z,98181.67
2018-07-12T16:46:22.701Z,98180.77
2018-07-12T16:48:52.506Z,98183.88
2018-07-12T16:51:21.750Z,98187.20
2018-07-12T16:53:51.254Z,98185.48
2018-07-12T16:56:20.491Z,98186.25
2018-07-12T16:58:49.863Z,98184.86
2018-07-12T17:01:19.010Z,98184.45
2018-07-12T17:03:48.106Z,98178.01
2018-07-12T17:06:17.955Z,98176.56
2018-07-12T17:08:47.591Z,98178.73
2018-07-12T17:11:16.694Z,98173.47
2018-07-12T17:13:45.836Z,98174.98
2018-07-12T17:16:14.962Z,98181.90
2018-07-12T17:18:44.287Z,98177.84
2018-07-12T17:21:14.530Z,98185.52
2018-07-12T17:23:44.200Z,98184.39
2018-07-12T17:26:13.813Z,98182.70
2018-07-12T17:28:43.869Z,98191.34
2018-07-12T17:31:14.129Z,98192.77
2018-07-12T17:33:44.829Z,98193.95
2018-07-12T17:36:13.906Z,98191.02
2018-07-12T17:38:42.993Z,98196.84
2018-07-12T17:41:12.193Z,98198.19
2018-07-12T17:43:41.282Z,98198.14
2018-07-12T17:46:11.073Z,98198.58
2018-07-12T17:48:40.167Z,98199.78
2018-07-12T17:51:12.155Z,98200.66
2018-07-12T17:53:42.000Z,98204.41
2018-07-12T17:56:11.932Z,98206.97
2018-07-12T17:58:41.491Z,98205.91
2018-07-12T18:01:10.930Z,98205.92
2018-07-12T18:03:40.274Z,98210.02
2018-07-12T18:06:09.990Z,98209.64
2018-07-12T18:08:39.786Z,98207.95
2018-07-12T18:11:09.099Z,98203.72
2018-07-12T18:13:37.935Z,98199.55
2018-07-12T18:16:07.138Z,98210.29
2018-07-12T18:18:36.252Z,98202.17
2018-07-12T18:21:06.482Z,98203.09
2018-07-12T18:23:35.554Z,98205.86
2018-07-12T18:26:06.499Z,98204.68
2018-07-12T18:28:35.609Z,98210.61
2018-07-12T18:31:05.187Z,98208.98
2018-07-12T18:33:34.302Z,98210.68
2018-07-12T18:36:04.811Z,98212.97
2018-07-12T18:38:33.910Z,98208.85
2018-07-12T18:41:03.393Z,98218.03
2018-07-12T18:43:33.312Z,98215.81
2018-07-12T18:46:03.198Z,98220.34
2018-07-12T18:48:33.159Z,98222.24
2018-07-12T18:51:02.427Z,98220.25
2018-07-12T18:53:32.471Z,98228.36
2018-07-12T18:56:02.048Z,98230.48
2018-07-12T18:58:31.631Z,98226.58
2018-07-12T19:01:01.107Z,98223.96
2018-07-12T19:03:30.283Z,98229.67
2018-07-12T19:06:00.039Z,98236.42
2018-07-12T19:08:30.146Z,98237.69
2018-07-12T19:10:59.923Z,98242.27
2018-07-12T19:13:29.815Z,98247.14
2018-07-12T19:15:59.747Z,98245.80
2018-07-12T19:18:29.179Z,98249.59
2018-07-12T19:20:58.943Z,98249.27
2018-07-12T19:23:29.774Z,98255.13
2018-07-12T19:25:59.257Z,98261.22
2018-07-12T19:28:28.338Z,98263.25
2018-07-12T19:30:58.542Z,98270.21
2018-07-12T19:33:27.686Z,98270.31
2018-07-12T19:35:56.747Z,98270.44
2018-07-12T19:38:26.040Z,98271.76
2018-07-12T19:40:55.911Z,98279.11
2018-07-12T19:43:26.490Z,98279.00
2018-07-12T19:45:56.926Z,98283.94
2018-07-12T19:48:26.307Z,98287.17
2018-07-12T19:50:55.564Z,98295.16
2018-07-12T19:53:24.797Z,98294.70
2018-07-12T19:55:55.250Z,98297.88
2018-07-12T19:58:25.011Z,98300.47
2018-07-12T20:00:54.298Z,98303.86
2018-07-12T20:03:23.713Z,98306.80
2018-07-12T20:05:53.394Z,98313.44
2018-07-12T20:08:22.878Z,98308.64
2018-07-12T20:10:51.970Z,98308.17
2018-07-12T20:13:21.060Z,98311.78
2018-07-12T20:15:50.740Z,98308.64
2018-07-12T20:18:19.941Z,98314.14
2018-07-12T20:20:49.064Z,98315.47
2018-07-12T20:23:18.465Z,98324.28
2018-07-12T20:25:48.539Z,98322.95
2018-07-12T20:28:18.479Z,98326.27
2018-07-12T20:30:48.590Z,98321.63
2018-07-12T20:33:18.307Z,98323.05
2018-07-12T20:35:48.782Z,98320.42
2018-07-12T20:38:18.583Z,98317.22
2018-07-12T20:40:47.705Z,98321.50
2018-07-12T20:43:20.854Z,98319.14
2018-07-12T20:45:50.379Z,98319.05
2018-07-12T20:48:19.698Z,98319.14
2018-07-12T20:50:49.362Z,98323.70
2018-07-12T20:53:19.318Z,98332.44
2018-07-12T20:55:50.326Z,98331.18
2018-07-12T20:58:19.406Z,98329.14
2018-07-12T21:00:50.276Z,98332.38
2018-07-12T21:03:19.394Z,98332.17
2018-07-12T21:05:50.243Z,98337.73
2018-07-12T21:08:19.539Z,98338.72
2018-07-12T21:10:49.386Z,98335.17
2018-07-12T21:13:19.322Z,98343.12
2018-07-12T21:15:48.420Z,98348.16
2018-07-12T21:18:17.546Z,98341.36
2018-07-12T21:20:46.786Z,98339.77
2018-07-12T21:23:16.590Z,98345.36
2018-07-12T21:25:46.154Z,98343.17
2018-07-12T21:28:15.648Z,98347.34
2018-07-12T21:30:44.887Z,98355.04
2018-07-12T21:33:14.595Z,98353.25
2018-07-12T21:35:44.602Z,98347.83
2018-07-12T21:38:14.435Z,98354.67
2018-07-12T21:40:45.679Z,98358.83
2018-07-12T21:43:15.110Z,98360.78
2018-07-12T21:45:45.074Z,98362.30
2018-07-12T21:48:14.487Z,98361.51
2018-07-12T21:50:44.015Z,98370.69
2018-07-12T21:53:13.494Z,98364.20
2018-07-12T21:55:42.596Z,98371.84
2018-07-12T21:58:11.742Z,98376.89
2018-07-12T22:00:40.812Z,98378.45
2018-07-12T22:03:09.963Z,98383.39
2018-07-12T22:05:39.119Z,98384.17
2018-07-12T22:08:14.568Z,98382.69
2018-07-12T22:10:44.791Z,98386.36
2018-07-12T22:13:14.483Z,98390.31
2018-07-12T22:15:43.618Z,98381.81
2018-07-12T22:18:12.775Z,98391.73
2018-07-12T22:20:41.866Z,98391.75
2018-07-12T22:23:11.251Z,98394.40
2018-07-12T22:25:41.235Z,98390.23
2018-07-12T22:28:10.522Z,98399.42
2018-07-12T22:30:39.965Z,98398.95
2018-07-12T22:33:09.306Z,98400.66
2018-07-12T22:35:39.143Z,98402.58
2018-07-12T22:38:08.482Z,98399.31
2018-07-12T22:40:37.582Z,98393.37
2018-07-12T22:43:06.675Z,98392.78
2018-07-12T22:45:36.323Z,98391.58
2018-07-12T22:48:05.499Z,98398.20
2018-07-12T22:50:35.047Z,98395.89
2018-07-12T22:53:04.134Z,98400.91
2018-07-12T22:55:33.553Z,98400.64
2018-07-12T22:58:02.647Z,98400.50
2018-07-12T23:00:31.798Z,98400.19
2018-07-12T23:03:00.898Z,98403.62
2018-07-12T23:05:30.008Z,98398.73
2018-07-12T23:07:59.189Z,98398.61
2018-07-12T23:10:29.050Z,98394.88
2018-07-12T23:12:59.031Z,98397.97
2018-07-12T23:15:28.870Z,98404.41
2018-07-12T23:17:58.186Z,98401.98
2018-07-12T23:20:26.987Z,98398.80
2018-07-12T23:22:56.123Z,98399.45
2018-07-12T23:25:25.395Z,98402.78
2018-07-12T23:27:54.619Z,98404.06
2018-07-12T23:30:24.140Z,98400.04
2018-07-12T23:32:53.258Z,98399.31
2018-07-12T23:35:22.371Z,98401.13
2018-07-12T23:37:51.842Z,98402.05
2018-07-12T23:40:20.987Z,98402.23
2018-07-12T23:42:50.167Z,98400.89
2018-07-12T23:45:19.325Z,98402.58
2018-07-12T23:47:48.410Z,98403.45
2018-07-12T23:50:17.731Z,98405.44
2018-07-12T23:52:46.854Z,98404.19
2018-07-12T23:55:15.975Z,98402.81
2018-07-12T23:57:45.115Z,98395.34
